Latest Weather Observations for Penrith

IDN60801

Issued at 5:02 pm EST Wednesday 25 May 2016 (issued every 30 minutes, with the page automatically refreshed every 10 minutes)

About weather observations | Map of weather stations | Latest weather observations for NSW | Other Formats
Station Details ID: 067113 Name: PENRITH LAKES AWS Lat: -33.72 Lon: 150.68 Height: 24.7 m
Data from the previous 72 hours. | See also: Recent months at Penrith
Date/Time
EST
Temp
°C
App
Temp
°C
Dew
Point
Rel
Hum
%
Delta-T
°C
Wind Press
QNH
hPa
Press
MSL
hPa
Rain
since 9 am
mm
Dir
 
Spd
km/h
Gust
km/h
Spd
kts
Gust
kts
25/05:00pm 14.1 - - - - WSW 6 7 3 4 - - 0.0
25/04:30pm 16.8 - - - - SW 6 7 3 4 - - 0.0
25/04:00pm 18.7 - - - - WSW 6 7 3 4 - - 0.0
25/03:30pm 19.9 - - - - WSW 6 6 3 3 - - 0.0
25/03:00pm 19.5 - - - - WSW 4 6 2 3 - - 0.0
25/02:30pm 20.4 - - - - NNW 4 6 2 3 - - 0.0
25/02:00pm 20.1 - - - - NW 6 9 3 5 - - 0.0
25/01:30pm 20.0 - - - - NNW 2 6 1 3 - - 0.0
25/01:00pm 18.6 - - - - NE 6 13 3 7 - - 0.0
25/12:30pm 18.1 - - - - NE 7 11 4 6 - - 0.0
25/12:00pm 17.1 - - - - NNW 7 11 4 6 - - 0.0
25/11:30am 16.4 - - - - NNW 6 11 3 6 - - 0.0
25/11:00am 15.6 - - - - NE 9 13 5 7 - - 0.0
25/10:30am 14.7 - - - - NNW 4 7 2 4 - - 0.0
25/10:00am 13.3 - - - - N 4 7 2 4 - - 0.0
25/09:30am 12.3 - - - - NE 2 4 1 2 - - 0.0
25/09:00am 10.0 - - - - NNW 4 6 2 3 - - 0.0
25/08:30am 8.2 - - - - S 2 4 1 2 - - 0.0
25/08:00am 6.4 - - - - SSW 4 6 2 3 - - 0.0
25/07:30am 4.9 - - - - S 4 6 2 3 - - 0.0
25/07:00am 4.9 - - - - CALM 0 0 0 0 - - 0.0
25/06:30am 5.0 - - - - SE 2 2 1 1 - - 0.0
25/06:00am 5.3 - - - - W 4 4 2 2 - - 0.0
25/05:30am 5.6 - - - - CALM 0 0 0 0 - - 0.0
25/05:00am 5.8 - - - - CALM 0 2 0 1 - - 0.0
25/04:30am 6.2 - - - - CALM 0 0 0 0 - - 0.0
25/04:00am 6.1 - - - - NW 2 2 1 1 - - 0.0
25/03:30am 6.4 - - - - S 2 6 1 3 - - 0.0
25/03:00am 7.1 - - - - S 2 4 1 2 - - 0.0
25/02:30am 7.0 - - - - S 2 4 1 2 - - 0.0
25/02:00am 7.1 - - - - CALM 0 0 0 0 - - 0.0
25/01:30am 7.7 - - - - CALM 0 0 0 0 - - 0.0
25/01:00am 8.6 - - - - WSW 2 4 1 2 - - 0.0
25/12:30am 8.5 - - - - SW 2 4 1 2 - - 0.0
25/12:00am 9.1 - - - - CALM 0 0 0 0 - - 0.0
 
Date/Time
EST
Temp
°C
App
Temp
°C
Dew
Point
Rel
Hum
%
Delta-T
°C
Wind Press
QNH
hPa
Press
MSL
hPa
Rain
since 9 am
mm
Dir
 
Spd
km/h
Gust
km/h
Spd
kts
Gust
kts
24/11:30pm 9.4 - - - - ESE 4 6 2 3 - - 0.0
24/11:00pm 9.9 - - - - W 2 6 1 3 - - 0.0
24/10:30pm 10.4 - - - - CALM 0 4 0 2 - - 0.0
24/10:00pm 10.5 - - - - SSE 2 4 1 2 - - 0.0
24/09:30pm 11.1 - - - - NNE 4 9 2 5 - - 0.0
24/09:00pm 11.9 - - - - NNE 2 6 1 3 - - 0.0
24/08:30pm 11.9 - - - - CALM 0 4 0 2 - - 0.0
24/08:00pm 13.6 - - - - ENE 2 4 1 2 - - 0.0
24/07:30pm 13.8 - - - - NW 4 6 2 3 - - 0.0
24/07:00pm 15.3 - - - - NNW 4 7 2 4 - - 0.0
24/06:30pm 15.6 - - - - N 9 13 5 7 - - 0.0
24/06:00pm 16.1 - - - - NNW 11 17 6 9 - - 0.0
24/05:30pm 17.3 - - - - NW 6 15 3 8 - - 0.0
24/05:00pm 18.1 - - - - W 2 6 1 3 - - 0.0
24/04:30pm 19.6 - - - - WSW 17 28 9 15 - - 0.0
24/04:00pm 20.6 - - - - WSW 13 20 7 11 - - 0.0
24/03:30pm 21.5 - - - - WSW 13 24 7 13 - - 0.0
24/03:00pm 22.0 - - - - WSW 19 30 10 16 - - 0.0
24/02:30pm 22.2 - - - - WSW 17 26 9 14 - - 0.0
24/02:00pm 22.1 - - - - WSW 15 24 8 13 - - 0.0
24/01:30pm 21.8 - - - - W 11 22 6 12 - - 0.0
24/01:00pm 21.6 - - - - WSW 9 20 5 11 - - 0.0
24/12:30pm 20.8 - - - - WNW 9 19 5 10 - - 0.0
24/12:00pm 19.6 - - - - NNE 4 7 2 4 - - 0.0
24/11:30am 18.4 - - - - N 7 15 4 8 - - 0.0
24/11:00am 17.2 - - - - SSE 2 6 1 3 - - 0.0
24/10:30am 15.3 - - - - S 2 6 1 3 - - 0.0
24/10:00am 13.2 - - - - CALM 0 6 0 3 - - 0.0
24/09:30am 13.1 - - - - SSE 2 6 1 3 - - 0.0
24/09:00am 10.6 - - - - SSE 4 6 2 3 - - 0.0
24/08:30am 8.8 - - - - S 2 4 1 2 - - 0.0
24/08:00am 7.9 - - - - CALM 0 2 0 1 - - 0.0
24/07:30am 6.0 - - - - CALM 0 0 0 0 - - 0.0
24/07:00am 5.5 - - - - CALM 0 0 0 0 - - 0.0
24/06:30am 5.3 - - - - CALM 0 0 0 0 - - 0.0
24/06:00am 5.7 - - - - CALM 0 0 0 0 - - 0.0
24/05:30am 6.1 - - - - CALM 0 0 0 0 - - 0.0
24/05:00am 6.2 - - - - SW 2 4 1 2 - - 0.0
24/04:30am 6.5 - - - - CALM 0 4 0 2 - - 0.0
24/04:00am 7.0 - - - - NNW 4 4 2 2 - - 0.0
24/03:30am 7.4 - - - - NNW 6 11 3 6 - - 0.0
24/03:00am 7.7 - - - - SSE 4 7 2 4 - - 0.0
24/02:30am 7.4 - - - - NNE 2 6 1 3 - - 0.0
24/02:00am 7.2 - - - - SSW 4 9 2 5 - - 0.0
24/01:30am 7.3 - - - - S 6 9 3 5 - - 0.0
24/01:00am 7.4 - - - - S 6 7 3 4 - - 0.0
24/12:30am 8.3 7.3 5.4 82 1.3 CALM 0 0 0 0 - - 0.0
24/12:00am 8.7 7.7 5.4 80 1.5 CALM 0 0 0 0 - - 0.0
 
Date/Time
EST
Temp
°C
App
Temp
°C
Dew
Point
Rel
Hum
%
Delta-T
°C
Wind Press
QNH
hPa
Press
MSL
hPa
Rain
since 9 am
mm
Dir
 
Spd
km/h
Gust
km/h
Spd
kts
Gust
kts
23/11:30pm 9.4 8.3 5.0 74 2.0 CALM 0 0 0 0 - - 0.0
23/11:00pm 10.0 8.2 3.7 65 2.8 NNW 2 4 1 2 - - 0.0
23/10:30pm 10.6 8.9 3.9 63 3.0 SSE 2 4 1 2 - - 0.0
23/10:00pm 10.7 9.4 4.2 64 2.9 CALM 0 0 0 0 - - 0.0
23/09:30pm 11.3 8.4 1.5 51 4.1 NE 6 7 3 4 - - 0.0
23/09:00pm 13.6 11.9 1.9 45 5.1 CALM 0 2 0 1 - - 0.0
23/08:30pm 15.2 12.2 0.6 37 6.3 WNW 6 9 3 5 - - 0.0
23/08:00pm 15.5 11.9 0.9 37 6.3 WNW 9 15 5 8 - - 0.0
23/07:30pm 16.0 11.7 1.0 36 6.5 WNW 13 19 7 10 - - 0.0
23/07:00pm 15.8 12.3 1.2 37 6.4 W 9 13 5 7 - - 0.0
23/06:30pm 16.8 13.3 1.3 35 6.8 WSW 9 15 5 8 - - 0.0
23/06:00pm 17.7 13.0 0.8 32 7.4 WSW 15 24 8 13 - - 0.0
23/05:30pm 18.1 14.1 0.3 30 7.8 SSW 11 20 6 11 - - 0.0
23/05:00pm 18.6 14.6 0.2 29 8.1 SW 11 19 6 10 - - 0.0
23/04:30pm 20.5 15.3 0.4 26 9.0 WSW 17 28 9 15 - - 0.0
23/04:00pm 21.6 15.9 0.8 25 9.5 SW 20 35 11 19 - - 0.0
23/03:30pm 22.5 16.5 0.9 24 9.9 SW 22 33 12 18 - - 0.0
23/03:00pm 23.9 18.4 2.1 24 10.4 SW 20 33 11 18 - - 0.0
23/02:30pm 24.7 19.9 4.5 27 10.1 W 19 33 10 18 - - 0.0
23/02:00pm 23.9 18.8 7.5 35 8.6 W 24 37 13 20 - - 0.0
23/01:30pm 24.5 21.3 10.0 40 8.0 WNW 17 26 9 14 - - 0.0
23/01:00pm 24.5 20.3 11.1 43 7.5 W 24 35 13 19 - - 0.0
23/12:30pm 25.1 20.7 11.6 42 7.7 WNW 26 39 14 21 - - 0.0
23/12:00pm 25.0 21.0 11.9 44 7.5 WNW 24 39 13 21 - - 0.0
23/11:30am 26.1 20.4 11.8 41 8.2 W 33 54 18 29 - - 0.0
23/11:09am 26.1 21.3 11.8 41 8.2 W 28 52 15 28 - - 0.0
23/11:00am 26.2 23.2 11.9 41 8.2 W 19 35 10 19 - - 0.0
23/10:30am 24.9 22.1 11.5 43 7.6 WNW 17 37 9 20 - - 0.0
23/10:00am 25.1 20.8 12.0 44 7.5 W 26 43 14 23 - - 0.0
23/09:30am 20.1 19.7 14.2 69 3.4 NNW 9 15 5 8 - - 0.0
23/09:00am 18.6 18.7 13.9 74 2.7 NE 6 11 3 6 - - 0.0
23/08:30am 16.9 17.7 15.9 94 0.6 NNE 6 11 3 6 - - 0.0
23/08:00am 13.1 14.0 12.8 98 0.2 CALM 0 4 0 2 - - 0.0
23/07:30am 11.3 10.9 11.0 98 0.2 N 4 6 2 3 - - 0.0
23/07:00am 10.5 10.2 10.2 98 0.2 WSW 2 7 1 4 - - 0.0
23/06:30am 10.8 11.0 10.5 98 0.2 CALM 0 0 0 0 - - 0.0
23/06:00am 10.4 10.5 10.1 98 0.2 CALM 0 0 0 0 - - 0.0
23/05:30am 10.3 9.0 10.0 98 0.2 N 7 9 4 5 - - 0.0
23/05:00am 10.8 11.0 10.5 98 0.2 CALM 0 0 0 0 - - 0.0
23/04:30am 11.1 11.4 10.8 98 0.2 CALM 0 0 0 0 - - 0.0
23/04:00am 11.1 10.6 10.8 98 0.2 SE 4 6 2 3 - - 0.0
23/03:30am 11.9 12.4 11.6 98 0.2 CALM 0 0 0 0 - - 0.0
23/03:00am 11.9 12.4 11.6 98 0.2 CALM 0 0 0 0 - - 0.0
23/02:30am 11.7 12.1 11.4 98 0.2 CALM 0 0 0 0 - - 0.0
23/02:00am 12.2 12.8 11.9 98 0.2 CALM 0 0 0 0 - - 0.0
23/01:30am 12.2 12.4 11.9 98 0.2 SSW 2 4 1 2 - - 0.0
23/01:00am 12.5 13.2 12.2 98 0.2 CALM 0 0 0 0 - - 0.0
23/12:30am 12.6 12.9 12.3 98 0.2 SSW 2 4 1 2 - - 0.0
23/12:00am 13.0 13.8 12.7 98 0.2 CALM 0 0 0 0 - - 0.0
 
Date/Time
EST
Temp
°C
App
Temp
°C
Dew
Point
Rel
Hum
%
Delta-T
°C
Wind Press
QNH
hPa
Press
MSL
hPa
Rain
since 9 am
mm
Dir
 
Spd
km/h
Gust
km/h
Spd
kts
Gust
kts
22/11:30pm 13.1 13.9 12.6 97 0.3 CALM 0 0 0 0 - - 0.0
22/11:00pm 13.5 14.4 13.0 97 0.3 CALM 0 0 0 0 - - 0.0
22/10:30pm 13.9 14.3 13.6 98 0.2 S 4 6 2 3 - - 0.0
22/10:00pm 13.3 12.8 12.8 97 0.3 SSE 7 9 4 5 - - 0.0
22/09:30pm 14.3 15.6 14.0 98 0.2 CALM 0 0 0 0 - - 0.0
22/09:00pm 15.1 16.6 14.6 97 0.3 CALM 0 0 0 0 - - 0.0
22/08:30pm 15.8 17.2 14.5 92 0.7 CALM 0 0 0 0 - - 0.0
22/08:00pm 15.9 17.0 13.4 85 1.4 CALM 0 2 0 1 - - 0.0
22/07:30pm 16.4 17.8 14.4 88 1.1 CALM 0 4 0 2 - - 0.0
22/07:00pm 16.4 17.1 13.5 83 1.6 SW 2 4 1 2 - - 0.0
22/06:30pm 16.2 16.5 13.5 84 1.5 SSW 4 6 2 3 - - 0.0
22/06:00pm 18.1 18.3 13.0 72 2.9 WNW 4 6 2 3 - - 0.0
22/05:30pm 19.0 20.0 13.2 69 3.3 CALM 0 0 0 0 - - 0.0

Other Formats:

Comma delimited format used in spreadsheet applications
http://www.bom.gov.au/fwo/IDN60801/IDN60801.94763.axf

JavaScript Object Notation format (JSON) in row-major order
http://www.bom.gov.au/fwo/IDN60801/IDN60801.94763.json